Austin, TX (78716)

3:37 PM CST on December 09, 2016 (GMT -0600)
West End | | Change Station

Elev 564 ft 30.28 °N, 97.75 °W | Updated 20 seconds ago

Overcast
Overcast
45.1 °F
Feels Like 45 °F
N
2.9
Wind Variable Wind from NE
Gusts 4.9 mph

Today
High -- | Low -- °F
--% Chance of Precip.
Yesterday
High -- | Low -- °F
Precip. -- in
Pressure 30.54 in
Visibility 10.0 miles
Clouds Overcast 6500 ft
Windchill 45 °F
Dew Point 15 °F
Humidity 29%
Rainfall 0.00 in
Snow Depth Not available.
7:16 AM 5:30 PM
Waxing Gibbous, 77% visible
METAR KATT 092051Z AUTO 00000KT 10SM OVC065 08/M07 A3052 RMK AO2 SLP342 T00781072 56030
Pressure 30.54 in
Visibility 10.0 miles
Clouds Overcast 6500 ft
Windchill 45 °F
Dew Point 15 °F
Humidity 29%
Rainfall 0.00 in
Snow Depth Not available.
7:16 AM 5:30 PM
Waxing Gibbous, 77% visible
METAR KATT 092051Z AUTO 00000KT 10SM OVC065 08/M07 A3052 RMK AO2 SLP342 T00781072 56030

10-Day Weather Forecast

Almanac

Astronomy

Dec. 09, 2016 Rise Set
Actual Time
Civil Twilight
Nautical Twilight
Astronomical Twilight
Moon
Length of Visible Light
Length of Day
Tomorrow will be .
, % of the Moon is Illuminated

Today's Extremes

State Highs State Lows

Community

WunderPhotos

Upload Photos

1,956,517 photos uploaded!

WunderBlog® & News

Nearby

Air Quality

  Air Quality AQ Index Pollutant
Not available.

Snow Depth

Station Depth Elevation

Earthquake Activity

City Distance Mag. Time & Date
Minimum magnitude displayed is 2.5.

Coastal Water Temperatures

Place Temperature

Stations

Nearby Weather Stations

Station Location Temp. Windchill Dew Point Humidity Wind Precip. Elev Updated Type
                   

Watches & Warnings

There are currently no watches in effect.